createdAt,value
2023-05-19T00:00:59.826Z,4.200
2023-05-19T00:02:07.797Z,4.200
2023-05-19T00:02:36.666Z,4.200
2023-05-19T00:03:25.889Z,4.400
2023-05-19T00:04:39.514Z,4.900
2023-05-19T00:05:38.484Z,4.100
2023-05-19T00:06:31.501Z,4.500
2023-05-19T00:07:22.784Z,4.400
2023-05-19T00:08:52.457Z,5.000
2023-05-19T00:09:30.674Z,4.200
2023-05-19T00:10:25.159Z,4.650
2023-05-19T00:11:49.572Z,4.100
2023-05-19T00:12:41.529Z,4.700
2023-05-19T00:13:32.436Z,4.800
2023-05-19T00:14:23.100Z,4.200
2023-05-19T00:15:19.808Z,4.600
2023-05-19T00:16:42.578Z,4.450
2023-05-19T00:18:01.587Z,4.500
2023-05-19T00:18:53.453Z,4.400
2023-05-19T00:19:46.513Z,4.700
2023-05-19T00:20:28.417Z,4.800
2023-05-19T00:21:24.475Z,4.300
2023-05-19T00:22:23.126Z,4.300
2023-05-19T00:23:46.177Z,4.550
2023-05-19T00:24:46.114Z,4.600
2023-05-19T00:25:57.422Z,4.800
2023-05-19T00:26:33.323Z,4.100
2023-05-19T00:27:44.252Z,4.400
2023-05-19T00:28:27.283Z,4.600
2023-05-19T00:29:29.280Z,5.050
2023-05-19T00:30:20.597Z,4.900
2023-05-19T00:31:25.380Z,4.900
2023-05-19T00:32:36.085Z,4.650
2023-05-19T00:33:57.343Z,4.400
2023-05-19T00:34:47.207Z,4.400
2023-05-19T00:35:31.230Z,4.900
2023-05-19T00:36:32.763Z,4.400
2023-05-19T00:37:25.310Z,5.000
2023-05-19T00:39:55.915Z,4.800
2023-05-19T00:40:59.146Z,4.650
2023-05-19T00:41:51.117Z,3.900
2023-05-19T00:42:22.181Z,4.400
2023-05-19T00:43:35.796Z,4.700
2023-05-19T00:44:28.824Z,4.700
2023-05-19T00:45:23.145Z,4.700
2023-05-19T00:48:25.267Z,4.350
2023-05-19T00:49:40.070Z,4.800
2023-05-19T00:50:24.226Z,4.300
2023-05-19T00:51:32.580Z,4.400
2023-05-19T00:52:26.028Z,3.950
2023-05-19T00:54:11.906Z,4.200
2023-05-19T00:55:44.934Z,4.400
2023-05-19T00:56:51.948Z,3.900
2023-05-19T00:57:44.930Z,4.600
2023-05-19T00:58:38.622Z,3.800
2023-05-19T00:59:23.982Z,4.200
2023-05-19T01:00:26.547Z,4.000
2023-05-19T01:01:21.490Z,4.300
2023-05-19T01:08:36.453Z,4.600
2023-05-19T01:10:09.226Z,4.300
2023-05-19T01:10:47.775Z,4.100
2023-05-19T01:17:40.772Z,4.800
2023-05-19T01:18:41.459Z,4.600
2023-05-19T01:19:55.194Z,4.500
2023-05-19T01:20:47.605Z,4.200
2023-05-19T01:21:35.481Z,4.500
2023-05-19T01:22:30.294Z,4.300
2023-05-19T01:23:22.479Z,4.000
2023-05-19T01:24:52.027Z,4.800
2023-05-19T01:26:02.597Z,4.350
2023-05-19T01:26:55.197Z,4.300
2023-05-19T01:27:21.845Z,4.900
2023-05-19T01:28:36.493Z,4.700
2023-05-19T01:29:35.012Z,4.800
2023-05-19T01:30:26.327Z,4.900
2023-05-19T01:33:26.192Z,4.650
2023-05-19T01:34:40.314Z,4.500
2023-05-19T01:35:45.258Z,4.500
2023-05-19T01:36:37.288Z,4.300
2023-05-19T01:37:23.321Z,4.800
2023-05-19T01:38:21.795Z,4.600
2023-05-19T01:39:30.936Z,4.300
2023-05-19T01:40:46.855Z,4.800
2023-05-19T01:41:55.058Z,4.350
2023-05-19T01:42:48.516Z,4.600
2023-05-19T01:43:41.799Z,4.200
2023-05-19T01:44:25.758Z,4.400
2023-05-19T01:45:27.075Z,4.300
2023-05-19T01:46:46.217Z,4.700
2023-05-19T01:48:09.890Z,4.500
2023-05-19T01:48:58.963Z,4.000
2023-05-19T01:49:54.364Z,4.200
2023-05-19T01:50:31.269Z,4.100
2023-05-19T01:51:38.712Z,4.400
2023-05-19T01:52:30.423Z,3.600
2023-05-19T01:53:22.502Z,4.600
2023-05-19T01:55:10.079Z,4.400
2023-05-19T01:56:35.558Z,4.400
2023-05-19T01:57:48.819Z,4.700
2023-05-19T01:58:41.852Z,4.400
2023-05-19T01:59:34.771Z,4.400
2023-05-19T02:00:26.176Z,4.100
2023-05-19T02:01:24.912Z,4.200
2023-05-19T02:02:26.151Z,4.400
2023-05-19T02:03:52.879Z,4.250
2023-05-19T02:04:53.628Z,4.500
2023-05-19T02:05:35.601Z,4.500
2023-05-19T02:06:22.781Z,4.000
2023-05-19T02:07:33.505Z,3.800
2023-05-19T02:08:25.610Z,4.300
2023-05-19T02:09:29.434Z,4.600
2023-05-19T02:11:07.210Z,4.200
2023-05-19T02:11:57.725Z,4.400
2023-05-19T02:12:22.622Z,4.200
2023-05-19T02:13:36.667Z,3.900
2023-05-19T02:14:36.620Z,4.400
2023-05-19T02:15:29.483Z,4.300
2023-05-19T02:16:21.110Z,4.350
2023-05-19T02:18:08.650Z,4.400
2023-05-19T02:19:41.405Z,4.350
2023-05-19T02:20:28.269Z,4.300
2023-05-19T02:21:40.440Z,4.200
2023-05-19T02:22:33.417Z,4.300
2023-05-19T02:23:25.047Z,4.600
2023-05-19T02:24:32.810Z,4.300
2023-05-19T02:25:46.321Z,4.300
2023-05-19T02:26:47.967Z,4.350
2023-05-19T02:27:31.073Z,4.400
2023-05-19T02:28:46.242Z,4.300
2023-05-19T02:29:24.273Z,4.050
2023-05-19T02:30:31.393Z,4.000
2023-05-19T02:31:27.153Z,4.100
2023-05-19T02:33:05.466Z,4.200
2023-05-19T02:33:48.211Z,3.850
2023-05-19T02:34:55.170Z,4.600
2023-05-19T02:35:20.190Z,4.800
2023-05-19T02:36:43.344Z,4.200
2023-05-19T02:37:35.105Z,4.000
2023-05-19T02:38:28.106Z,4.000
2023-05-19T02:39:19.687Z,3.800
2023-05-19T02:40:22.617Z,4.450
2023-05-19T02:41:34.580Z,4.600
2023-05-19T02:42:23.338Z,5.000
2023-05-19T02:43:45.568Z,4.300
2023-05-19T02:44:38.997Z,4.700
2023-05-19T02:45:31.545Z,4.300
2023-05-19T02:46:27.029Z,4.000
2023-05-19T02:47:39.936Z,4.300
2023-05-19T02:48:39.894Z,4.000
2023-05-19T02:49:27.952Z,4.400
2023-05-19T02:50:50.976Z,4.100
2023-05-19T02:51:43.954Z,4.100
2023-05-19T02:52:36.888Z,3.900
2023-05-19T02:53:29.859Z,4.800
2023-05-19T02:54:21.002Z,4.000
2023-05-19T02:56:08.758Z,4.300
2023-05-19T02:57:01.971Z,4.400
2023-05-19T02:57:22.835Z,4.700
2023-05-19T02:58:37.836Z,4.800
2023-05-19T02:59:40.649Z,4.000
2023-05-19T03:00:25.442Z,4.600
2023-05-19T03:01:26.178Z,4.050
2023-05-19T03:03:14.119Z,4.400
2023-05-19T03:04:42.701Z,4.250
2023-05-19T03:05:51.479Z,4.000
2023-05-19T03:06:46.255Z,4.200
2023-05-19T03:07:38.075Z,4.200
2023-05-19T03:08:21.624Z,4.300
2023-05-19T03:09:23.569Z,3.900
2023-05-19T03:10:35.019Z,4.500
2023-05-19T03:11:23.549Z,4.250
2023-05-19T03:12:57.496Z,4.650
2023-05-19T03:13:48.784Z,4.000
2023-05-19T03:14:26.292Z,4.400
2023-05-19T03:15:34.512Z,4.100
2023-05-19T03:16:26.480Z,3.900
2023-05-19T03:17:21.623Z,4.700
2023-05-19T03:18:26.415Z,4.300
2023-05-19T03:20:00.502Z,4.000
2023-05-19T03:20:31.697Z,4.700
2023-05-19T03:21:34.438Z,4.400
2023-05-19T03:22:21.397Z,4.200
2023-05-19T03:23:30.135Z,4.000
2023-05-19T03:24:24.747Z,4.000
2023-05-19T03:25:22.337Z,3.600
2023-05-19T03:26:35.092Z,4.000
2023-05-19T03:27:49.307Z,4.000
2023-05-19T03:28:50.375Z,4.600
2023-05-19T03:29:26.034Z,4.400
2023-05-19T03:30:35.224Z,4.000
2023-05-19T03:31:30.221Z,4.000
2023-05-19T03:32:22.257Z,4.700
2023-05-19T03:33:54.334Z,4.600
2023-05-19T03:35:01.973Z,4.200
2023-05-19T03:35:54.201Z,4.200
2023-05-19T03:36:28.450Z,4.500
2023-05-19T03:37:32.825Z,4.600
2023-05-19T03:38:34.900Z,4.900
2023-05-19T03:39:27.206Z,4.800
2023-05-19T03:40:21.599Z,4.500
2023-05-19T03:42:24.118Z,4.400
2023-05-19T03:43:38.203Z,3.800
2023-05-19T03:44:42.113Z,4.200
2023-05-19T03:45:38.838Z,4.200
2023-05-19T03:46:31.012Z,4.600
2023-05-19T03:47:22.277Z,4.500
2023-05-19T03:48:28.893Z,4.300
2023-05-19T03:49:44.936Z,4.400
2023-05-19T03:50:53.525Z,4.400
2023-05-19T03:51:45.845Z,4.200
2023-05-19T03:52:38.652Z,4.400
2023-05-19T03:53:22.945Z,3.800
2023-05-19T03:54:27.786Z,4.300
2023-05-19T03:55:21.053Z,4.300
2023-05-19T03:57:05.914Z,4.300
2023-05-19T03:57:37.234Z,4.000
2023-05-19T03:58:22.940Z,4.600
2023-05-19T03:59:28.578Z,4.250
2023-05-19T04:00:36.037Z,4.300
2023-05-19T04:01:28.822Z,4.700
2023-05-19T04:02:22.595Z,4.800
2023-05-19T04:05:32.717Z,4.450
2023-05-19T04:06:47.756Z,4.900
2023-05-19T04:07:40.683Z,4.700
2023-05-19T04:08:33.673Z,4.600
2023-05-19T04:09:20.317Z,5.300
2023-05-19T04:10:23.100Z,4.600
2023-05-19T04:11:36.142Z,4.500
2023-05-19T04:12:50.620Z,4.750
2023-05-19T04:13:51.415Z,4.300
2023-05-19T04:14:47.431Z,4.500
2023-05-19T04:15:37.832Z,4.700
2023-05-19T04:16:31.024Z,4.800
2023-05-19T04:17:23.062Z,4.900
2023-05-19T04:18:46.517Z,4.600
2023-05-19T04:20:02.468Z,4.500
2023-05-19T04:20:55.264Z,4.600
2023-05-19T04:21:20.052Z,4.100
2023-05-19T04:22:34.182Z,5.100
2023-05-19T04:23:34.254Z,5.100
2023-05-19T04:24:26.498Z,4.600
2023-05-19T04:25:23.164Z,4.400
2023-05-19T04:27:21.447Z,4.800
2023-05-19T04:28:39.187Z,4.700
2023-05-19T04:29:45.122Z,4.900
2023-05-19T04:30:29.681Z,4.800
2023-05-19T04:31:30.029Z,4.850
2023-05-19T04:32:22.366Z,5.100
2023-05-19T04:33:20.401Z,4.800
2023-05-19T04:34:24.499Z,4.600
2023-05-19T04:35:58.310Z,4.600
2023-05-19T04:36:51.634Z,4.400
2023-05-19T04:37:32.949Z,4.400
2023-05-19T04:38:24.455Z,4.300
2023-05-19T04:39:27.849Z,4.000
2023-05-19T04:40:20.669Z,4.700
2023-05-19T04:41:27.120Z,4.500
2023-05-19T04:42:59.718Z,4.650
2023-05-19T04:43:50.310Z,5.000
2023-05-19T04:44:28.651Z,4.300
2023-05-19T04:45:24.745Z,5.000
2023-05-19T04:46:32.628Z,5.100
2023-05-19T04:47:25.574Z,4.800
2023-05-19T04:48:21.229Z,5.000
2023-05-19T04:50:09.024Z,5.000
2023-05-19T04:50:31.955Z,4.900
2023-05-19T04:51:47.098Z,4.600
2023-05-19T04:52:42.691Z,4.300
2023-05-19T04:53:36.312Z,4.400
2023-05-19T04:54:27.685Z,4.900
2023-05-19T04:55:22.840Z,4.900
2023-05-19T04:56:36.723Z,4.700
2023-05-19T04:57:51.373Z,5.500
2023-05-19T04:58:54.422Z,5.350
2023-05-19T04:59:29.294Z,5.400
2023-05-19T05:00:38.444Z,4.600
2023-05-19T05:01:33.719Z,5.500
2023-05-19T05:02:26.241Z,5.200
2023-05-19T05:03:22.617Z,4.800
2023-05-19T05:05:07.533Z,4.800
2023-05-19T05:05:57.851Z,4.500
2023-05-19T05:06:20.873Z,5.200
2023-05-19T05:07:35.153Z,4.700
2023-05-19T05:08:37.162Z,5.000
2023-05-19T05:09:30.131Z,4.900
2023-05-19T05:10:21.483Z,5.100
2023-05-19T05:12:25.620Z,5.000
2023-05-19T05:13:36.277Z,5.000
2023-05-19T05:14:48.675Z,5.100
2023-05-19T05:15:40.915Z,5.200
2023-05-19T05:16:34.196Z,4.900
2023-05-19T05:17:26.207Z,4.500
2023-05-19T05:18:23.679Z,3.900
2023-05-19T05:19:45.015Z,4.700
2023-05-19T05:20:39.496Z,4.600
2023-05-19T05:21:27.291Z,4.800
2023-05-19T05:22:45.600Z,4.950
2023-05-19T05:23:23.881Z,4.500
2023-05-19T05:24:37.977Z,4.300
2023-05-19T05:25:23.777Z,4.700
2023-05-19T05:26:20.843Z,4.600
2023-05-19T05:28:02.901Z,4.600
2023-05-19T05:28:55.861Z,4.200
2023-05-19T05:29:29.780Z,4.500
2023-05-19T05:30:44.872Z,4.500
2023-05-19T05:31:34.636Z,4.900
2023-05-19T05:32:29.023Z,4.800
2023-05-19T05:33:25.124Z,4.400
2023-05-19T05:34:21.818Z,4.400
2023-05-19T05:35:33.806Z,4.400
2023-05-19T05:36:45.664Z,4.300
2023-05-19T05:37:45.594Z,4.300
2023-05-19T05:38:39.557Z,4.300
2023-05-19T05:39:25.180Z,4.600
2023-05-19T05:40:23.390Z,4.300
2023-05-19T05:41:22.202Z,4.100
2023-05-19T05:42:34.046Z,4.400
2023-05-19T05:43:58.039Z,4.900
2023-05-19T05:44:50.307Z,4.700
2023-05-19T05:45:48.117Z,4.100
2023-05-19T05:46:31.317Z,4.300
2023-05-19T05:47:29.463Z,4.600
2023-05-19T05:48:20.480Z,4.800
2023-05-19T05:49:19.607Z,4.750
2023-05-19T05:51:21.831Z,4.550
2023-05-19T05:52:36.449Z,4.400
2023-05-19T05:53:33.060Z,4.900
2023-05-19T05:54:31.674Z,4.600
2023-05-19T05:55:21.610Z,4.200
2023-05-19T05:56:23.864Z,4.600
2023-05-19T05:57:26.299Z,4.900
2023-05-19T05:58:23.717Z,4.500
2023-05-19T05:59:32.550Z,4.500
2023-05-19T06:00:30.837Z,4.250
2023-05-19T06:01:21.947Z,4.800
2023-05-19T06:02:21.653Z,4.700
2023-05-19T06:03:23.325Z,4.700
2023-05-19T06:04:21.686Z,4.750
2023-05-19T06:05:22.848Z,4.400
2023-05-19T06:06:34.966Z,4.600
2023-05-19T06:07:29.280Z,4.500
2023-05-19T06:08:26.175Z,4.600
2023-05-19T06:09:20.773Z,4.900
2023-05-19T06:10:25.360Z,4.750
2023-05-19T06:11:28.153Z,4.450
2023-05-19T06:12:22.984Z,4.500
2023-05-19T06:13:33.001Z,4.600
2023-05-19T06:14:45.748Z,4.600
2023-05-19T06:15:28.974Z,4.300
2023-05-19T06:16:20.855Z,4.300
2023-05-19T06:17:31.282Z,4.750
2023-05-19T06:18:23.148Z,4.600
2023-05-19T06:19:22.856Z,4.600
2023-05-19T06:20:35.218Z,5.100
2023-05-19T06:21:28.495Z,4.600
2023-05-19T06:22:25.995Z,4.300
2023-05-19T06:23:21.152Z,4.650
2023-05-19T06:24:33.593Z,4.900
2023-05-19T06:25:27.971Z,4.550
2023-05-19T06:26:22.885Z,4.100
2023-05-19T06:27:34.744Z,4.550
2023-05-19T06:28:31.675Z,4.750
2023-05-19T06:29:25.131Z,4.250
2023-05-19T06:30:22.889Z,4.400
2023-05-19T06:31:38.923Z,4.250
2023-05-19T06:32:26.895Z,4.200
2023-05-19T06:33:27.392Z,4.400
2023-05-19T06:34:23.316Z,3.950
2023-05-19T06:35:28.891Z,4.500
2023-05-19T06:36:26.686Z,4.500
2023-05-19T06:37:20.625Z,4.250
2023-05-19T06:38:30.952Z,4.000
2023-05-19T06:39:34.352Z,4.250
2023-05-19T06:40:23.416Z,4.000
2023-05-19T06:41:21.388Z,3.950
2023-05-19T06:42:23.398Z,3.700
2023-05-19T06:43:24.688Z,4.150
2023-05-19T06:44:21.607Z,4.400
2023-05-19T06:45:32.722Z,4.450
2023-05-19T06:46:27.151Z,4.100
2023-05-19T06:47:21.642Z,3.900
2023-05-19T06:48:25.690Z,3.950
2023-05-19T06:49:25.144Z,4.100
2023-05-19T06:50:24.875Z,3.900
2023-05-19T06:51:20.981Z,4.350
2023-05-19T06:52:33.225Z,3.300
2023-05-19T06:53:27.013Z,4.200
2023-05-19T06:54:24.506Z,3.950
2023-05-19T06:55:24.391Z,4.100
2023-05-19T06:56:21.469Z,3.900
2023-05-19T06:57:24.845Z,3.750
2023-05-19T06:58:21.646Z,3.800
2023-05-19T06:59:32.271Z,3.800
2023-05-19T07:00:27.427Z,3.900
2023-05-19T07:01:24.358Z,4.300
2023-05-19T07:02:34.347Z,4.200
2023-05-19T07:03:25.661Z,4.100
2023-05-19T07:04:26.364Z,3.800
2023-05-19T07:05:20.866Z,4.000
2023-05-19T07:06:32.234Z,3.950
2023-05-19T07:07:27.001Z,4.000
2023-05-19T07:08:24.238Z,3.700
2023-05-19T07:09:33.041Z,3.800
2023-05-19T07:10:29.800Z,4.000
2023-05-19T07:11:25.380Z,3.850
2023-05-19T07:12:24.245Z,3.300
2023-05-19T07:13:32.461Z,3.700
2023-05-19T07:14:27.571Z,3.450
2023-05-19T07:15:24.052Z,3.900
2023-05-19T07:16:34.689Z,3.750
2023-05-19T07:17:28.577Z,3.300
2023-05-19T07:18:28.061Z,3.600
2023-05-19T07:19:20.836Z,3.450
2023-05-19T07:20:20.643Z,3.400
2023-05-19T07:21:25.139Z,3.700
2023-05-19T07:22:24.240Z,3.550
2023-05-19T07:23:32.996Z,3.700
2023-05-19T07:24:31.386Z,3.400
2023-05-19T07:25:24.639Z,3.650
2023-05-19T07:26:24.983Z,3.000
2023-05-19T07:27:24.737Z,3.400
2023-05-19T07:28:26.324Z,3.700
2023-05-19T07:29:22.729Z,3.600
2023-05-19T07:30:33.833Z,3.400
2023-05-19T07:31:30.982Z,3.350
2023-05-19T07:32:20.650Z,3.500
2023-05-19T07:33:20.821Z,3.150
2023-05-19T07:34:20.877Z,3.450
2023-05-19T07:35:24.108Z,3.600
2023-05-19T07:36:22.740Z,3.350
2023-05-19T07:37:33.694Z,3.400
2023-05-19T07:38:26.989Z,3.400
2023-05-19T07:39:25.671Z,3.150
2023-05-19T07:40:22.786Z,3.000
2023-05-19T07:41:26.087Z,3.700
2023-05-19T07:42:27.665Z,3.100
2023-05-19T07:43:22.710Z,3.200
2023-05-19T07:44:34.065Z,3.050
2023-05-19T07:45:28.996Z,3.150
2023-05-19T07:46:26.214Z,3.100
2023-05-19T07:47:21.666Z,3.250
2023-05-19T07:48:30.880Z,3.200
2023-05-19T07:49:23.873Z,3.100
2023-05-19T07:50:23.623Z,3.350
2023-05-19T07:51:32.807Z,3.600
2023-05-19T07:52:30.222Z,3.100
2023-05-19T07:53:25.079Z,3.200
2023-05-19T07:54:21.271Z,3.300
2023-05-19T07:55:27.649Z,2.850
2023-05-19T07:56:27.479Z,3.350
2023-05-19T07:57:22.956Z,2.900
2023-05-19T07:58:20.709Z,3.250
2023-05-19T07:59:28.875Z,3.350
2023-05-19T08:00:21.484Z,2.900
2023-05-19T08:01:21.094Z,3.300
2023-05-19T08:02:31.523Z,3.300
2023-05-19T08:03:32.400Z,3.350
2023-05-19T08:04:23.642Z,2.900
2023-05-19T08:05:26.587Z,3.050
2023-05-19T08:06:24.805Z,2.800
2023-05-19T08:07:26.572Z,2.900
2023-05-19T08:08:20.989Z,2.800
2023-05-19T08:09:30.823Z,2.900
2023-05-19T08:10:28.782Z,3.150
2023-05-19T08:11:22.906Z,3.100
2023-05-19T08:12:32.042Z,3.250
2023-05-19T08:13:21.996Z,2.900
2023-05-19T08:14:24.805Z,2.800
2023-05-19T08:15:20.877Z,3.050
2023-05-19T08:16:31.070Z,3.200
2023-05-19T08:17:22.868Z,3.250
2023-05-19T08:18:23.166Z,2.850
2023-05-19T08:19:23.917Z,2.950
2023-05-19T08:20:30.612Z,2.900
2023-05-19T08:21:24.803Z,3.000
2023-05-19T08:22:21.167Z,3.000
2023-05-19T08:23:28.108Z,2.850
2023-05-19T08:24:26.949Z,2.650
2023-05-19T08:25:24.124Z,2.900
2023-05-19T08:26:29.192Z,2.850
2023-05-19T08:27:20.343Z,2.950
2023-05-19T08:28:24.848Z,2.800
2023-05-19T08:29:21.075Z,2.650
2023-05-19T08:30:31.231Z,2.900
2023-05-19T08:31:28.521Z,2.900
2023-05-19T08:32:22.947Z,2.850
2023-05-19T08:33:33.099Z,2.700
2023-05-19T08:34:24.841Z,2.750
2023-05-19T08:35:24.807Z,2.900
2023-05-19T08:36:20.778Z,2.700
2023-05-19T08:37:34.219Z,2.950
2023-05-19T08:38:26.660Z,2.750
2023-05-19T08:39:22.822Z,2.800
2023-05-19T08:40:29.736Z,2.950
2023-05-19T08:41:29.041Z,2.900
2023-05-19T08:42:22.975Z,3.000
2023-05-19T08:43:21.515Z,2.650
2023-05-19T08:44:31.043Z,3.000
2023-05-19T08:45:22.046Z,2.800
2023-05-19T08:46:22.713Z,2.800
2023-05-19T08:47:33.045Z,3.100
2023-05-19T08:48:29.081Z,2.700
2023-05-19T08:49:27.185Z,2.700
2023-05-19T08:50:20.882Z,2.700
2023-05-19T08:51:24.642Z,2.700
2023-05-19T08:52:27.672Z,2.800
2023-05-19T08:53:32.460Z,2.600
2023-05-19T08:54:34.476Z,2.450
2023-05-19T08:55:29.023Z,2.500
2023-05-19T08:56:25.174Z,2.500
2023-05-19T08:57:22.285Z,2.800
2023-05-19T08:58:28.692Z,3.000
2023-05-19T08:59:27.291Z,2.700
2023-05-19T09:00:24.937Z,2.500
2023-05-19T09:01:34.050Z,2.500
2023-05-19T09:02:22.722Z,2.600
2023-05-19T09:03:26.216Z,2.750
2023-05-19T09:04:21.377Z,2.700
2023-05-19T09:05:30.997Z,2.600
2023-05-19T09:06:23.440Z,2.450
2023-05-19T09:07:23.010Z,2.800
2023-05-19T09:08:29.910Z,2.750
2023-05-19T09:09:28.897Z,2.850
2023-05-19T09:10:27.303Z,2.400
2023-05-19T09:11:21.041Z,2.500
2023-05-19T09:12:23.493Z,2.300
2023-05-19T09:13:19.691Z,2.600
2023-05-19T09:14:24.846Z,2.700
2023-05-19T09:15:32.956Z,2.400
2023-05-19T09:16:30.176Z,2.500
2023-05-19T09:17:25.766Z,2.400
2023-05-19T09:18:21.681Z,2.300
2023-05-19T09:19:27.731Z,2.350
2023-05-19T09:20:20.718Z,2.600
2023-05-19T09:21:25.298Z,2.700
2023-05-19T09:22:34.414Z,2.550
2023-05-19T09:23:28.734Z,2.500
2023-05-19T09:24:26.671Z,2.500
2023-05-19T09:25:21.137Z,2.300
2023-05-19T09:26:31.211Z,2.350
2023-05-19T09:27:27.885Z,2.400
2023-05-19T09:28:22.924Z,2.400
2023-05-19T09:29:24.656Z,2.350
2023-05-19T09:30:21.397Z,2.500
2023-05-19T09:31:26.160Z,2.500
2023-05-19T09:32:21.503Z,2.400
2023-05-19T09:33:31.361Z,2.200
2023-05-19T09:34:29.429Z,2.500
2023-05-19T09:35:23.669Z,2.600
2023-05-19T09:36:28.099Z,2.500
2023-05-19T09:37:28.751Z,2.100
2023-05-19T09:38:25.416Z,2.500
2023-05-19T09:39:20.849Z,2.350
2023-05-19T09:40:32.456Z,2.150
2023-05-19T09:41:26.722Z,2.500
2023-05-19T09:42:27.080Z,2.550
2023-05-19T09:43:33.015Z,2.500
2023-05-19T09:44:25.652Z,2.500
2023-05-19T09:45:25.062Z,2.550
2023-05-19T09:46:20.834Z,2.800
2023-05-19T09:47:24.646Z,2.400
2023-05-19T09:48:29.864Z,2.300
2023-05-19T09:49:23.579Z,2.600
2023-05-19T09:50:24.331Z,2.350
2023-05-19T09:51:29.106Z,2.400
2023-05-19T09:52:20.516Z,2.700
2023-05-19T09:53:21.370Z,2.350
2023-05-19T09:54:30.990Z,2.350
2023-05-19T09:55:27.361Z,2.300
2023-05-19T09:56:22.677Z,2.400
2023-05-19T09:57:26.697Z,2.350
2023-05-19T09:58:20.342Z,2.400
2023-05-19T09:59:25.042Z,2.200
2023-05-19T10:00:20.867Z,2.150
2023-05-19T10:01:32.847Z,2.500
2023-05-19T10:02:27.061Z,2.450
2023-05-19T10:03:23.838Z,2.400
2023-05-19T10:04:25.628Z,2.400
2023-05-19T10:05:26.273Z,2.200
2023-05-19T10:06:25.071Z,2.600
2023-05-19T10:07:21.614Z,2.500
2023-05-19T10:08:32.507Z,2.200
2023-05-19T10:09:27.121Z,2.000
2023-05-19T10:10:24.573Z,2.150
2023-05-19T10:11:36.797Z,2.250
2023-05-19T10:12:28.893Z,2.100
2023-05-19T10:13:20.307Z,2.200
2023-05-19T10:14:21.656Z,2.400
2023-05-19T10:15:24.454Z,2.200
2023-05-19T10:16:27.007Z,2.450
2023-05-19T10:17:23.209Z,2.400
2023-05-19T10:18:34.657Z,2.250
2023-05-19T10:19:32.437Z,2.600
2023-05-19T10:20:24.943Z,2.200
2023-05-19T10:21:21.067Z,2.200
2023-05-19T10:22:24.697Z,2.650
2023-05-19T10:23:26.998Z,2.300
2023-05-19T10:24:24.842Z,2.800
2023-05-19T10:25:33.144Z,2.450
2023-05-19T10:26:29.497Z,2.200
2023-05-19T10:27:25.131Z,2.200
2023-05-19T10:28:21.550Z,2.300
2023-05-19T10:29:28.261Z,2.250
2023-05-19T10:30:20.549Z,2.100
2023-05-19T10:31:23.020Z,2.500
2023-05-19T10:32:25.478Z,2.050
2023-05-19T10:33:28.743Z,2.150
2023-05-19T10:34:25.000Z,2.300
2023-05-19T10:35:23.012Z,2.100
2023-05-19T10:36:31.733Z,2.000
2023-05-19T10:37:27.300Z,2.200
2023-05-19T10:38:23.017Z,2.200
2023-05-19T10:39:32.716Z,2.250
2023-05-19T10:40:29.508Z,2.000
2023-05-19T10:41:24.797Z,2.650
2023-05-19T10:42:22.503Z,2.600
2023-05-19T10:43:23.252Z,2.500
2023-05-19T10:44:28.867Z,2.200
2023-05-19T10:45:23.227Z,2.650
2023-05-19T10:46:33.146Z,2.400
2023-05-19T10:47:30.163Z,2.400
2023-05-19T10:48:24.778Z,2.300
2023-05-19T10:49:22.401Z,2.100
2023-05-19T10:50:27.190Z,2.250
2023-05-19T10:51:27.378Z,2.100
2023-05-19T10:52:22.790Z,2.300
2023-05-19T10:53:33.045Z,2.000
2023-05-19T10:54:29.404Z,2.200
2023-05-19T10:55:26.742Z,2.200
2023-05-19T10:56:20.763Z,2.150
2023-05-19T10:57:31.894Z,2.100
2023-05-19T10:58:23.501Z,2.050
2023-05-19T10:59:22.778Z,2.300
2023-05-19T11:00:35.083Z,2.200
2023-05-19T11:01:29.104Z,2.000
2023-05-19T11:02:25.106Z,2.050
2023-05-19T11:03:24.516Z,2.100
2023-05-19T11:04:32.790Z,1.950
2023-05-19T11:05:28.117Z,2.100
2023-05-19T11:06:22.664Z,2.150
2023-05-19T11:07:27.502Z,2.100
2023-05-19T11:08:20.684Z,1.900
2023-05-19T11:09:34.136Z,1.900
2023-05-19T11:10:22.336Z,2.000
2023-05-19T11:11:20.955Z,2.250
2023-05-19T11:12:27.102Z,2.200
2023-05-19T11:13:26.186Z,2.050
2023-05-19T11:14:33.019Z,2.150
2023-05-19T11:15:25.380Z,2.200
2023-05-19T11:16:25.092Z,2.250
2023-05-19T11:17:20.928Z,2.200
2023-05-19T11:18:32.456Z,2.100
2023-05-19T11:19:27.219Z,2.300
2023-05-19T11:20:24.392Z,2.300
2023-05-19T11:21:21.465Z,1.900
2023-05-19T11:22:28.964Z,2.100
2023-05-19T11:23:21.918Z,1.950
2023-05-19T11:24:21.118Z,2.150
2023-05-19T11:25:30.984Z,2.000
2023-05-19T11:26:28.534Z,1.950
2023-05-19T11:27:23.112Z,1.900
2023-05-19T11:28:25.528Z,2.150
2023-05-19T11:29:29.072Z,2.000
2023-05-19T11:30:26.896Z,1.900
2023-05-19T11:31:22.626Z,1.900
2023-05-19T11:32:33.519Z,1.650
2023-05-19T11:33:26.958Z,1.850
2023-05-19T11:34:25.035Z,1.600
2023-05-19T11:35:29.227Z,2.050
2023-05-19T11:36:22.813Z,2.000
2023-05-19T11:37:24.930Z,1.950
2023-05-19T11:38:24.554Z,1.850
2023-05-19T11:39:30.775Z,1.800
2023-05-19T11:40:28.757Z,1.700
2023-05-19T11:41:23.834Z,1.850
2023-05-19T11:42:34.151Z,1.800
2023-05-19T11:43:30.062Z,1.850
2023-05-19T11:44:24.870Z,1.800
2023-05-19T11:45:21.044Z,2.100
2023-05-19T11:46:20.917Z,2.200
2023-05-19T11:47:26.900Z,2.200
2023-05-19T11:48:24.706Z,1.850
2023-05-19T11:49:34.140Z,1.950
2023-05-19T11:50:30.515Z,2.000
2023-05-19T11:51:24.967Z,1.800
2023-05-19T11:52:21.022Z,1.700
2023-05-19T11:53:25.045Z,1.800
2023-05-19T11:54:28.519Z,1.800
2023-05-19T11:55:22.889Z,1.700
2023-05-19T11:56:22.715Z,1.650
2023-05-19T11:57:30.777Z,1.850
2023-05-19T11:58:27.489Z,1.900
2023-05-19T11:59:22.188Z,1.900
2023-05-19T12:00:32.954Z,2.000
2023-05-19T12:01:24.068Z,2.000
2023-05-19T12:02:23.440Z,2.050
2023-05-19T12:03:33.367Z,1.800
2023-05-19T12:04:29.224Z,1.800
2023-05-19T12:05:25.931Z,1.850
2023-05-19T12:06:21.537Z,1.900
2023-05-19T12:07:34.018Z,2.000
2023-05-19T12:08:26.731Z,1.850
2023-05-19T12:09:22.860Z,1.700
2023-05-19T12:10:33.128Z,1.900
2023-05-19T12:11:30.557Z,1.750
2023-05-19T12:12:24.651Z,1.800
2023-05-19T12:13:22.987Z,1.950
2023-05-19T12:14:21.053Z,1.850
2023-05-19T12:15:27.680Z,1.700
2023-05-19T12:16:25.383Z,2.000
2023-05-19T12:17:33.082Z,2.100
2023-05-19T12:18:30.912Z,2.000
2023-05-19T12:19:28.991Z,1.850
2023-05-19T12:20:22.849Z,1.700
2023-05-19T12:21:25.234Z,1.800
2023-05-19T12:22:27.119Z,1.900
2023-05-19T12:23:22.686Z,1.950
2023-05-19T12:24:20.363Z,1.900
2023-05-19T12:25:31.022Z,2.100
2023-05-19T12:26:25.115Z,1.800
2023-05-19T12:27:22.653Z,1.800
2023-05-19T12:28:32.943Z,1.700
2023-05-19T12:29:22.360Z,1.700
2023-05-19T12:30:25.309Z,1.850
2023-05-19T12:31:26.343Z,1.750
2023-05-19T12:32:29.397Z,1.700
2023-05-19T12:33:26.653Z,1.700
2023-05-19T12:34:21.206Z,1.850
2023-05-19T12:35:34.835Z,1.900
2023-05-19T12:36:27.064Z,1.700
2023-05-19T12:37:23.878Z,1.900
2023-05-19T12:38:30.611Z,1.850
2023-05-19T12:39:21.744Z,1.900
2023-05-19T12:40:26.469Z,1.800
2023-05-19T12:41:23.023Z,2.300
2023-05-19T12:42:30.998Z,2.150
2023-05-19T12:43:28.795Z,1.900
2023-05-19T12:44:23.067Z,1.700
2023-05-19T12:45:47.078Z,1.800
2023-05-19T12:46:25.728Z,2.050
2023-05-19T12:47:27.655Z,1.700
2023-05-19T12:48:21.803Z,1.700
2023-05-19T12:49:30.596Z,1.800
2023-05-19T12:50:26.920Z,1.700
2023-05-19T12:51:24.740Z,1.600
2023-05-19T12:52:21.778Z,1.700
2023-05-19T12:53:28.816Z,1.800
2023-05-19T12:54:25.028Z,1.850
2023-05-19T12:55:21.545Z,1.800
2023-05-19T12:56:32.371Z,1.900
2023-05-19T12:57:26.945Z,1.850
2023-05-19T12:58:25.657Z,1.900
2023-05-19T12:59:37.234Z,1.850
2023-05-19T13:00:29.304Z,1.800
2023-05-19T13:01:27.626Z,1.700
2023-05-19T13:02:21.054Z,1.600
2023-05-19T13:03:30.961Z,1.900
2023-05-19T13:04:30.357Z,1.950
2023-05-19T13:05:22.982Z,1.850
2023-05-19T13:06:28.463Z,1.700
2023-05-19T13:07:21.468Z,1.950
2023-05-19T13:08:24.819Z,1.900
2023-05-19T13:09:26.021Z,1.900
2023-05-19T13:10:35.595Z,1.950
2023-05-19T13:11:27.351Z,1.800
2023-05-19T13:12:25.168Z,1.850
2023-05-19T13:13:34.435Z,1.850
2023-05-19T13:14:25.577Z,1.900
2023-05-19T13:15:26.992Z,1.900
2023-05-19T13:16:20.938Z,2.100
2023-05-19T13:17:22.275Z,1.750
2023-05-19T13:18:28.347Z,1.800
2023-05-19T13:19:26.041Z,2.000